sensor_id;sensor_type;location;lat;lon;timestamp;temperature;humidity
40516;DHT22;26216;53.724;9.898;2022-08-21T00:01:05;16.20;70.70
40516;DHT22;26216;53.724;9.898;2022-08-21T00:03:32;16.10;70.70
40516;DHT22;26216;53.724;9.898;2022-08-21T00:05:58;16.10;70.80
40516;DHT22;26216;53.724;9.898;2022-08-21T00:08:24;16.10;70.90
40516;DHT22;26216;53.724;9.898;2022-08-21T00:10:50;16.10;71.00
40516;DHT22;26216;53.724;9.898;2022-08-21T00:13:17;16.10;71.50
40516;DHT22;26216;53.724;9.898;2022-08-21T00:15:43;16.10;71.00
40516;DHT22;26216;53.724;9.898;2022-08-21T00:18:10;16.10;71.00
40516;DHT22;26216;53.724;9.898;2022-08-21T00:20:40;16.10;71.00
40516;DHT22;26216;53.724;9.898;2022-08-21T00:23:07;16.10;71.10
40516;DHT22;26216;53.724;9.898;2022-08-21T00:25:33;16.10;71.10
40516;DHT22;26216;53.724;9.898;2022-08-21T00:27:59;16.10;71.10
40516;DHT22;26216;53.724;9.898;2022-08-21T00:30:26;16.10;71.20
40516;DHT22;26216;53.724;9.898;2022-08-21T00:32:53;16.10;71.40
40516;DHT22;26216;53.724;9.898;2022-08-21T00:35:32;16.10;71.50
40516;DHT22;26216;53.724;9.898;2022-08-21T00:37:59;16.10;71.60
40516;DHT22;26216;53.724;9.898;2022-08-21T00:40:35;16.10;71.90
40516;DHT22;26216;53.724;9.898;2022-08-21T00:43:04;16.00;71.90
40516;DHT22;26216;53.724;9.898;2022-08-21T00:45:31;16.10;71.80
40516;DHT22;26216;53.724;9.898;2022-08-21T00:47:57;16.00;71.70
40516;DHT22;26216;53.724;9.898;2022-08-21T00:50:27;16.00;71.80
40516;DHT22;26216;53.724;9.898;2022-08-21T00:52:54;16.00;71.90
40516;DHT22;26216;53.724;9.898;2022-08-21T00:55:22;16.00;71.90
40516;DHT22;26216;53.724;9.898;2022-08-21T00:57:51;16.00;72.00
40516;DHT22;26216;53.724;9.898;2022-08-21T01:00:23;15.90;72.20
40516;DHT22;26216;53.724;9.898;2022-08-21T01:02:49;15.90;72.40
40516;DHT22;26216;53.724;9.898;2022-08-21T01:05:16;15.90;72.30
40516;DHT22;26216;53.724;9.898;2022-08-21T01:07:42;15.90;72.30
40516;DHT22;26216;53.724;9.898;2022-08-21T01:10:10;15.80;72.20
40516;DHT22;26216;53.724;9.898;2022-08-21T01:12:36;15.80;72.20
40516;DHT22;26216;53.724;9.898;2022-08-21T01:15:05;15.80;72.30
40516;DHT22;26216;53.724;9.898;2022-08-21T01:17:31;15.80;72.40
40516;DHT22;26216;53.724;9.898;2022-08-21T01:19:59;15.70;72.30
40516;DHT22;26216;53.724;9.898;2022-08-21T01:22:25;15.70;72.40
40516;DHT22;26216;53.724;9.898;2022-08-21T01:24:51;15.70;72.40
40516;DHT22;26216;53.724;9.898;2022-08-21T01:27:17;15.70;72.50
40516;DHT22;26216;53.724;9.898;2022-08-21T01:29:53;15.60;72.50
40516;DHT22;26216;53.724;9.898;2022-08-21T01:32:20;15.60;72.70
40516;DHT22;26216;53.724;9.898;2022-08-21T01:34:48;15.60;72.50
40516;DHT22;26216;53.724;9.898;2022-08-21T01:37:15;15.60;72.70
40516;DHT22;26216;53.724;9.898;2022-08-21T01:39:44;15.60;72.70
40516;DHT22;26216;53.724;9.898;2022-08-21T01:42:10;15.60;72.90
40516;DHT22;26216;53.724;9.898;2022-08-21T01:44:36;15.50;72.70
40516;DHT22;26216;53.724;9.898;2022-08-21T01:47:06;15.50;72.80
40516;DHT22;26216;53.724;9.898;2022-08-21T01:49:33;15.50;72.80
40516;DHT22;26216;53.724;9.898;2022-08-21T01:51:59;15.50;72.80
40516;DHT22;26216;53.724;9.898;2022-08-21T01:54:25;15.50;72.80
40516;DHT22;26216;53.724;9.898;2022-08-21T01:56:53;15.40;72.90
40516;DHT22;26216;53.724;9.898;2022-08-21T01:59:20;15.40;73.00
40516;DHT22;26216;53.724;9.898;2022-08-21T02:01:46;15.40;73.10
40516;DHT22;26216;53.724;9.898;2022-08-21T02:04:12;15.40;73.00
40516;DHT22;26216;53.724;9.898;2022-08-21T02:06:39;15.30;73.00
40516;DHT22;26216;53.724;9.898;2022-08-21T02:09:07;15.30;73.10
40516;DHT22;26216;53.724;9.898;2022-08-21T02:11:34;15.30;73.20
40516;DHT22;26216;53.724;9.898;2022-08-21T02:14:00;15.20;73.10
40516;DHT22;26216;53.724;9.898;2022-08-21T02:16:26;15.20;73.20
40516;DHT22;26216;53.724;9.898;2022-08-21T02:18:52;15.20;73.20
40516;DHT22;26216;53.724;9.898;2022-08-21T02:21:17;15.20;73.20
40516;DHT22;26216;53.724;9.898;2022-08-21T02:23:44;15.20;73.30
40516;DHT22;26216;53.724;9.898;2022-08-21T02:26:10;15.20;73.40
40516;DHT22;26216;53.724;9.898;2022-08-21T02:28:36;15.10;73.50
40516;DHT22;26216;53.724;9.898;2022-08-21T02:31:02;15.10;73.50
40516;DHT22;26216;53.724;9.898;2022-08-21T02:33:28;15.10;73.50
40516;DHT22;26216;53.724;9.898;2022-08-21T02:35:55;15.00;73.40
40516;DHT22;26216;53.724;9.898;2022-08-21T02:38:25;15.00;73.60
40516;DHT22;26216;53.724;9.898;2022-08-21T02:40:52;15.00;73.70
40516;DHT22;26216;53.724;9.898;2022-08-21T02:43:21;15.00;73.80
40516;DHT22;26216;53.724;9.898;2022-08-21T02:45:47;15.00;73.80
40516;DHT22;26216;53.724;9.898;2022-08-21T02:48:18;14.90;73.80
40516;DHT22;26216;53.724;9.898;2022-08-21T02:51:07;14.90;73.90
40516;DHT22;26216;53.724;9.898;2022-08-21T02:53:34;14.90;74.10
40516;DHT22;26216;53.724;9.898;2022-08-21T02:56:04;14.90;74.00
40516;DHT22;26216;53.724;9.898;2022-08-21T02:58:34;14.90;74.20
40516;DHT22;26216;53.724;9.898;2022-08-21T03:01:00;14.80;74.20
40516;DHT22;26216;53.724;9.898;2022-08-21T03:03:27;14.90;74.30
40516;DHT22;26216;53.724;9.898;2022-08-21T03:05:53;14.80;74.30
40516;DHT22;26216;53.724;9.898;2022-08-21T03:08:20;14.80;74.40
40516;DHT22;26216;53.724;9.898;2022-08-21T03:10:49;14.80;74.50
40516;DHT22;26216;53.724;9.898;2022-08-21T03:13:16;14.80;74.70
40516;DHT22;26216;53.724;9.898;2022-08-21T03:15:43;14.80;74.80
40516;DHT22;26216;53.724;9.898;2022-08-21T03:18:10;14.80;74.90
40516;DHT22;26216;53.724;9.898;2022-08-21T03:20:38;14.80;75.00
40516;DHT22;26216;53.724;9.898;2022-08-21T03:23:05;14.80;75.10
40516;DHT22;26216;53.724;9.898;2022-08-21T03:25:32;14.80;75.10
40516;DHT22;26216;53.724;9.898;2022-08-21T03:28:00;14.80;75.10
40516;DHT22;26216;53.724;9.898;2022-08-21T03:30:26;14.80;75.10
40516;DHT22;26216;53.724;9.898;2022-08-21T03:32:52;14.80;75.10
40516;DHT22;26216;53.724;9.898;2022-08-21T03:35:19;14.80;75.00
40516;DHT22;26216;53.724;9.898;2022-08-21T03:37:46;14.90;75.20
40516;DHT22;26216;53.724;9.898;2022-08-21T03:40:15;14.80;75.20
40516;DHT22;26216;53.724;9.898;2022-08-21T03:42:41;14.90;75.30
40516;DHT22;26216;53.724;9.898;2022-08-21T03:45:07;14.90;75.20
40516;DHT22;26216;53.724;9.898;2022-08-21T03:47:33;14.80;75.20
40516;DHT22;26216;53.724;9.898;2022-08-21T03:50:01;14.90;75.30
40516;DHT22;26216;53.724;9.898;2022-08-21T03:52:26;14.90;75.20
40516;DHT22;26216;53.724;9.898;2022-08-21T03:54:52;14.80;75.10
40516;DHT22;26216;53.724;9.898;2022-08-21T03:57:18;14.80;75.20
40516;DHT22;26216;53.724;9.898;2022-08-21T03:59:44;14.80;75.90
40516;DHT22;26216;53.724;9.898;2022-08-21T04:02:10;14.80;75.40
40516;DHT22;26216;53.724;9.898;2022-08-21T04:04:37;14.80;75.40
40516;DHT22;26216;53.724;9.898;2022-08-21T04:07:03;14.80;75.50
40516;DHT22;26216;53.724;9.898;2022-08-21T04:09:29;14.80;75.70
40516;DHT22;26216;53.724;9.898;2022-08-21T04:11:56;14.80;75.70
40516;DHT22;26216;53.724;9.898;2022-08-21T04:14:22;14.80;75.80
40516;DHT22;26216;53.724;9.898;2022-08-21T04:16:48;14.80;75.80
40516;DHT22;26216;53.724;9.898;2022-08-21T04:19:14;14.70;75.90
40516;DHT22;26216;53.724;9.898;2022-08-21T04:21:41;14.80;76.10
40516;DHT22;26216;53.724;9.898;2022-08-21T04:24:08;14.80;76.20
40516;DHT22;26216;53.724;9.898;2022-08-21T04:26:36;14.80;76.40
40516;DHT22;26216;53.724;9.898;2022-08-21T04:29:03;14.80;76.60
40516;DHT22;26216;53.724;9.898;2022-08-21T04:31:33;14.80;76.80
40516;DHT22;26216;53.724;9.898;2022-08-21T04:34:02;14.80;77.00
40516;DHT22;26216;53.724;9.898;2022-08-21T04:36:28;14.90;77.40
40516;DHT22;26216;53.724;9.898;2022-08-21T04:38:55;14.90;77.40
40516;DHT22;26216;53.724;9.898;2022-08-21T04:41:20;15.00;77.60
40516;DHT22;26216;53.724;9.898;2022-08-21T04:43:46;15.00;77.70
40516;DHT22;26216;53.724;9.898;2022-08-21T04:46:12;15.00;77.70
40516;DHT22;26216;53.724;9.898;2022-08-21T04:48:38;15.10;77.90
40516;DHT22;26216;53.724;9.898;2022-08-21T04:51:19;15.10;78.00
40516;DHT22;26216;53.724;9.898;2022-08-21T04:53:52;15.20;78.70
40516;DHT22;26216;53.724;9.898;2022-08-21T04:56:22;15.30;78.30
40516;DHT22;26216;53.724;9.898;2022-08-21T04:58:51;15.30;78.40
40516;DHT22;26216;53.724;9.898;2022-08-21T05:01:21;15.30;78.50
40516;DHT22;26216;53.724;9.898;2022-08-21T05:03:49;15.40;78.60
40516;DHT22;26216;53.724;9.898;2022-08-21T05:06:16;15.40;78.60
40516;DHT22;26216;53.724;9.898;2022-08-21T05:08:46;15.50;78.70
40516;DHT22;26216;53.724;9.898;2022-08-21T05:11:13;15.50;78.80
40516;DHT22;26216;53.724;9.898;2022-08-21T05:13:38;15.50;78.80
40516;DHT22;26216;53.724;9.898;2022-08-21T05:16:07;15.60;78.90
40516;DHT22;26216;53.724;9.898;2022-08-21T05:18:33;15.70;78.90
40516;DHT22;26216;53.724;9.898;2022-08-21T05:20:59;15.70;79.00
40516;DHT22;26216;53.724;9.898;2022-08-21T05:23:25;15.80;79.00
40516;DHT22;26216;53.724;9.898;2022-08-21T05:25:52;15.80;79.10
40516;DHT22;26216;53.724;9.898;2022-08-21T05:28:19;16.00;79.30
40516;DHT22;26216;53.724;9.898;2022-08-21T05:30:45;16.00;79.30
40516;DHT22;26216;53.724;9.898;2022-08-21T05:33:11;16.00;79.40
40516;DHT22;26216;53.724;9.898;2022-08-21T05:35:38;16.10;79.50
40516;DHT22;26216;53.724;9.898;2022-08-21T05:38:04;16.20;79.60
40516;DHT22;26216;53.724;9.898;2022-08-21T05:40:31;16.30;79.60
40516;DHT22;26216;53.724;9.898;2022-08-21T05:42:58;16.30;79.70
40516;DHT22;26216;53.724;9.898;2022-08-21T05:45:27;16.40;79.80
40516;DHT22;26216;53.724;9.898;2022-08-21T05:47:54;16.50;80.10
40516;DHT22;26216;53.724;9.898;2022-08-21T05:50:20;16.60;80.20
40516;DHT22;26216;53.724;9.898;2022-08-21T05:52:46;16.70;80.40
40516;DHT22;26216;53.724;9.898;2022-08-21T05:55:12;16.80;80.60
40516;DHT22;26216;53.724;9.898;2022-08-21T05:57:38;16.90;80.70
40516;DHT22;26216;53.724;9.898;2022-08-21T06:00:07;17.10;80.90
40516;DHT22;26216;53.724;9.898;2022-08-21T06:02:35;17.20;80.90
40516;DHT22;26216;53.724;9.898;2022-08-21T06:05:01;17.30;80.90
40516;DHT22;26216;53.724;9.898;2022-08-21T06:07:27;17.50;81.10
40516;DHT22;26216;53.724;9.898;2022-08-21T06:09:52;17.60;81.00
40516;DHT22;26216;53.724;9.898;2022-08-21T06:12:18;17.70;81.00
40516;DHT22;26216;53.724;9.898;2022-08-21T06:14:44;17.90;81.00
40516;DHT22;26216;53.724;9.898;2022-08-21T06:17:11;18.00;81.00
40516;DHT22;26216;53.724;9.898;2022-08-21T06:19:38;18.20;81.10
40516;DHT22;26216;53.724;9.898;2022-08-21T06:22:04;18.30;80.90
40516;DHT22;26216;53.724;9.898;2022-08-21T06:24:31;18.50;80.80
40516;DHT22;26216;53.724;9.898;2022-08-21T06:26:56;18.60;80.60
40516;DHT22;26216;53.724;9.898;2022-08-21T06:29:23;18.80;80.40
40516;DHT22;26216;53.724;9.898;2022-08-21T06:31:50;18.90;80.30
40516;DHT22;26216;53.724;9.898;2022-08-21T06:34:17;19.10;80.20
40516;DHT22;26216;53.724;9.898;2022-08-21T06:36:43;19.20;80.00
40516;DHT22;26216;53.724;9.898;2022-08-21T06:39:09;19.40;79.80
40516;DHT22;26216;53.724;9.898;2022-08-21T06:41:36;19.50;79.60
40516;DHT22;26216;53.724;9.898;2022-08-21T06:44:01;19.60;79.30
40516;DHT22;26216;53.724;9.898;2022-08-21T06:46:29;19.70;79.10
40516;DHT22;26216;53.724;9.898;2022-08-21T06:48:56;19.80;78.60
40516;DHT22;26216;53.724;9.898;2022-08-21T06:51:23;20.00;78.40
40516;DHT22;26216;53.724;9.898;2022-08-21T06:53:51;20.10;78.10
40516;DHT22;26216;53.724;9.898;2022-08-21T06:56:17;20.20;78.00
40516;DHT22;26216;53.724;9.898;2022-08-21T06:58:44;20.30;77.80
40516;DHT22;26216;53.724;9.898;2022-08-21T07:01:10;20.40;77.30
40516;DHT22;26216;53.724;9.898;2022-08-21T07:03:39;20.60;77.30
40516;DHT22;26216;53.724;9.898;2022-08-21T07:06:07;20.70;77.20
40516;DHT22;26216;53.724;9.898;2022-08-21T07:08:34;20.80;76.90
40516;DHT22;26216;53.724;9.898;2022-08-21T07:11:02;20.90;76.70
40516;DHT22;26216;53.724;9.898;2022-08-21T07:13:30;21.00;75.80
40516;DHT22;26216;53.724;9.898;2022-08-21T07:15:56;21.10;75.80
40516;DHT22;26216;53.724;9.898;2022-08-21T07:18:22;21.20;75.60
40516;DHT22;26216;53.724;9.898;2022-08-21T07:20:48;21.30;76.10
40516;DHT22;26216;53.724;9.898;2022-08-21T07:23:27;21.40;75.20
40516;DHT22;26216;53.724;9.898;2022-08-21T07:25:54;21.60;74.80
40516;DHT22;26216;53.724;9.898;2022-08-21T07:28:19;21.60;74.40
40516;DHT22;26216;53.724;9.898;2022-08-21T07:30:51;21.70;74.10
40516;DHT22;26216;53.724;9.898;2022-08-21T07:33:17;21.90;74.20
40516;DHT22;26216;53.724;9.898;2022-08-21T07:35:43;22.00;73.50
40516;DHT22;26216;53.724;9.898;2022-08-21T07:38:09;22.10;73.90
40516;DHT22;26216;53.724;9.898;2022-08-21T07:40:35;22.20;73.50
40516;DHT22;26216;53.724;9.898;2022-08-21T07:43:01;22.30;71.90
40516;DHT22;26216;53.724;9.898;2022-08-21T07:45:27;22.40;72.60
40516;DHT22;26216;53.724;9.898;2022-08-21T07:47:53;22.50;71.90
40516;DHT22;26216;53.724;9.898;2022-08-21T07:50:20;22.60;71.90
40516;DHT22;26216;53.724;9.898;2022-08-21T07:52:46;22.70;71.80
40516;DHT22;26216;53.724;9.898;2022-08-21T07:55:16;22.90;71.40
40516;DHT22;26216;53.724;9.898;2022-08-21T07:57:42;22.90;70.90
40516;DHT22;26216;53.724;9.898;2022-08-21T08:00:13;23.10;71.30
40516;DHT22;26216;53.724;9.898;2022-08-21T08:02:40;23.20;70.80
40516;DHT22;26216;53.724;9.898;2022-08-21T08:05:09;23.30;70.20
40516;DHT22;26216;53.724;9.898;2022-08-21T08:07:37;23.40;70.40
40516;DHT22;26216;53.724;9.898;2022-08-21T08:10:05;23.50;70.30
40516;DHT22;26216;53.724;9.898;2022-08-21T08:12:36;23.60;70.50
40516;DHT22;26216;53.724;9.898;2022-08-21T08:15:04;23.70;70.50
40516;DHT22;26216;53.724;9.898;2022-08-21T08:17:30;23.80;70.00
40516;DHT22;26216;53.724;9.898;2022-08-21T08:19:58;23.90;70.20
40516;DHT22;26216;53.724;9.898;2022-08-21T08:22:24;24.00;70.00
40516;DHT22;26216;53.724;9.898;2022-08-21T08:24:51;24.10;69.60
40516;DHT22;26216;53.724;9.898;2022-08-21T08:27:18;24.20;69.40
40516;DHT22;26216;53.724;9.898;2022-08-21T08:29:45;24.30;69.30
40516;DHT22;26216;53.724;9.898;2022-08-21T08:32:11;24.40;69.40
40516;DHT22;26216;53.724;9.898;2022-08-21T08:34:38;24.40;67.40
40516;DHT22;26216;53.724;9.898;2022-08-21T08:37:06;24.60;67.40
40516;DHT22;26216;53.724;9.898;2022-08-21T08:39:33;24.60;68.20
40516;DHT22;26216;53.724;9.898;2022-08-21T08:44:41;24.80;68.30
40516;DHT22;26216;53.724;9.898;2022-08-21T08:47:09;24.80;66.90
40516;DHT22;26216;53.724;9.898;2022-08-21T08:49:56;24.90;66.40
40516;DHT22;26216;53.724;9.898;2022-08-21T08:52:34;25.00;65.90
40516;DHT22;26216;53.724;9.898;2022-08-21T08:55:04;25.00;66.50
40516;DHT22;26216;53.724;9.898;2022-08-21T08:57:32;25.10;66.70
40516;DHT22;26216;53.724;9.898;2022-08-21T09:00:03;25.10;65.90
40516;DHT22;26216;53.724;9.898;2022-08-21T09:02:31;25.20;66.20
40516;DHT22;26216;53.724;9.898;2022-08-21T09:04:59;25.20;66.70
40516;DHT22;26216;53.724;9.898;2022-08-21T09:07:47;25.30;66.30
40516;DHT22;26216;53.724;9.898;2022-08-21T09:10:34;25.30;66.50
40516;DHT22;26216;53.724;9.898;2022-08-21T09:19:04;25.60;65.40
40516;DHT22;26216;53.724;9.898;2022-08-21T09:21:43;25.70;63.80
40516;DHT22;26216;53.724;9.898;2022-08-21T09:27:10;25.80;64.80
40516;DHT22;26216;53.724;9.898;2022-08-21T09:29:40;25.80;63.80
40516;DHT22;26216;53.724;9.898;2022-08-21T09:32:18;25.80;64.70
40516;DHT22;26216;53.724;9.898;2022-08-21T09:35:18;25.90;65.30
40516;DHT22;26216;53.724;9.898;2022-08-21T09:37:58;26.00;65.30
40516;DHT22;26216;53.724;9.898;2022-08-21T09:40:45;26.00;64.10
40516;DHT22;26216;53.724;9.898;2022-08-21T09:45:38;26.20;64.50
40516;DHT22;26216;53.724;9.898;2022-08-21T09:48:12;26.30;61.80
40516;DHT22;26216;53.724;9.898;2022-08-21T09:50:39;26.20;63.20
40516;DHT22;26216;53.724;9.898;2022-08-21T09:53:20;26.30;63.70
40516;DHT22;26216;53.724;9.898;2022-08-21T09:55:53;26.40;64.40
40516;DHT22;26216;53.724;9.898;2022-08-21T09:58:42;26.50;63.70
40516;DHT22;26216;53.724;9.898;2022-08-21T10:01:30;26.50;64.30
40516;DHT22;26216;53.724;9.898;2022-08-21T10:04:04;26.60;62.90
40516;DHT22;26216;53.724;9.898;2022-08-21T10:06:49;26.70;62.60
40516;DHT22;26216;53.724;9.898;2022-08-21T10:09:33;26.70;62.60
40516;DHT22;26216;53.724;9.898;2022-08-21T10:12:45;26.80;61.20
40516;DHT22;26216;53.724;9.898;2022-08-21T10:16:02;26.80;61.40
40516;DHT22;26216;53.724;9.898;2022-08-21T10:19:15;26.90;61.40
40516;DHT22;26216;53.724;9.898;2022-08-21T10:25:26;27.00;61.30
40516;DHT22;26216;53.724;9.898;2022-08-21T10:31:21;27.00;60.00
40516;DHT22;26216;53.724;9.898;2022-08-21T10:44:23;26.70;57.70
40516;DHT22;26216;53.724;9.898;2022-08-21T10:47:24;26.60;59.10
40516;DHT22;26216;53.724;9.898;2022-08-21T10:56:22;26.70;58.70
40516;DHT22;26216;53.724;9.898;2022-08-21T10:59:33;26.80;59.50
40516;DHT22;26216;53.724;9.898;2022-08-21T11:02:27;27.00;59.30
40516;DHT22;26216;53.724;9.898;2022-08-21T11:08:15;27.40;58.90
40516;DHT22;26216;53.724;9.898;2022-08-21T11:10:50;27.50;57.60
40516;DHT22;26216;53.724;9.898;2022-08-21T11:13:27;27.70;58.80
40516;DHT22;26216;53.724;9.898;2022-08-21T11:16:31;27.80;57.50
40516;DHT22;26216;53.724;9.898;2022-08-21T11:19:52;28.00;56.20
40516;DHT22;26216;53.724;9.898;2022-08-21T11:24:51;28.10;55.00
40516;DHT22;26216;53.724;9.898;2022-08-21T11:27:23;28.20;56.10
40516;DHT22;26216;53.724;9.898;2022-08-21T11:29:54;28.20;55.70
40516;DHT22;26216;53.724;9.898;2022-08-21T13:48:28;28.30;49.40
40516;DHT22;26216;53.724;9.898;2022-08-21T13:51:13;28.30;49.00
40516;DHT22;26216;53.724;9.898;2022-08-21T13:56:20;28.30;48.50
40516;DHT22;26216;53.724;9.898;2022-08-21T13:58:47;28.30;49.40
40516;DHT22;26216;53.724;9.898;2022-08-21T14:01:23;28.40;49.70
40516;DHT22;26216;53.724;9.898;2022-08-21T14:03:52;28.40;49.90
40516;DHT22;26216;53.724;9.898;2022-08-21T14:06:22;28.40;49.80
40516;DHT22;26216;53.724;9.898;2022-08-21T14:08:58;28.50;50.00
40516;DHT22;26216;53.724;9.898;2022-08-21T14:11:26;28.60;49.70
40516;DHT22;26216;53.724;9.898;2022-08-21T14:13:59;28.70;49.90
40516;DHT22;26216;53.724;9.898;2022-08-21T14:16:41;28.70;47.70
40516;DHT22;26216;53.724;9.898;2022-08-21T14:19:11;28.70;48.30
40516;DHT22;26216;53.724;9.898;2022-08-21T14:21:40;28.70;48.60
40516;DHT22;26216;53.724;9.898;2022-08-21T14:26:51;28.60;48.50
40516;DHT22;26216;53.724;9.898;2022-08-21T14:29:21;28.50;48.50
40516;DHT22;26216;53.724;9.898;2022-08-21T14:31:57;28.50;49.00
40516;DHT22;26216;53.724;9.898;2022-08-21T14:34:28;28.50;49.60
40516;DHT22;26216;53.724;9.898;2022-08-21T14:36:55;28.50;49.10
40516;DHT22;26216;53.724;9.898;2022-08-21T14:39:21;28.50;49.60
40516;DHT22;26216;53.724;9.898;2022-08-21T14:41:48;28.50;48.20
40516;DHT22;26216;53.724;9.898;2022-08-21T14:44:16;28.50;48.20
40516;DHT22;26216;53.724;9.898;2022-08-21T14:46:43;28.50;48.10
40516;DHT22;26216;53.724;9.898;2022-08-21T14:49:09;28.50;47.30
40516;DHT22;26216;53.724;9.898;2022-08-21T14:51:35;28.50;48.40
40516;DHT22;26216;53.724;9.898;2022-08-21T14:54:02;28.50;48.60
40516;DHT22;26216;53.724;9.898;2022-08-21T14:56:28;28.50;48.10
40516;DHT22;26216;53.724;9.898;2022-08-21T14:58:54;28.50;48.90
40516;DHT22;26216;53.724;9.898;2022-08-21T15:01:24;28.50;49.00
40516;DHT22;26216;53.724;9.898;2022-08-21T15:03:50;28.50;48.80
40516;DHT22;26216;53.724;9.898;2022-08-21T15:06:17;28.60;48.90
40516;DHT22;26216;53.724;9.898;2022-08-21T15:08:43;28.70;47.10
40516;DHT22;26216;53.724;9.898;2022-08-21T15:11:21;28.70;47.90
40516;DHT22;26216;53.724;9.898;2022-08-21T15:13:55;28.80;48.20
40516;DHT22;26216;53.724;9.898;2022-08-21T15:16:22;28.90;48.30
40516;DHT22;26216;53.724;9.898;2022-08-21T15:18:48;28.90;47.80
40516;DHT22;26216;53.724;9.898;2022-08-21T15:21:14;29.00;48.10
40516;DHT22;26216;53.724;9.898;2022-08-21T15:23:40;29.10;48.30
40516;DHT22;26216;53.724;9.898;2022-08-21T15:26:06;29.20;47.30
40516;DHT22;26216;53.724;9.898;2022-08-21T15:28:33;29.30;47.40
40516;DHT22;26216;53.724;9.898;2022-08-21T15:31:00;29.30;46.30
40516;DHT22;26216;53.724;9.898;2022-08-21T15:33:26;29.30;45.90
40516;DHT22;26216;53.724;9.898;2022-08-21T15:35:53;29.30;47.20
40516;DHT22;26216;53.724;9.898;2022-08-21T15:38:19;29.30;45.80
40516;DHT22;26216;53.724;9.898;2022-08-21T15:40:45;29.30;47.10
40516;DHT22;26216;53.724;9.898;2022-08-21T15:43:34;29.40;46.00
40516;DHT22;26216;53.724;9.898;2022-08-21T15:46:01;29.50;45.10
40516;DHT22;26216;53.724;9.898;2022-08-21T15:48:27;29.40;45.50
40516;DHT22;26216;53.724;9.898;2022-08-21T15:50:53;29.50;46.60
40516;DHT22;26216;53.724;9.898;2022-08-21T15:53:20;29.40;45.90
40516;DHT22;26216;53.724;9.898;2022-08-21T15:55:46;29.30;46.40
40516;DHT22;26216;53.724;9.898;2022-08-21T15:58:15;29.30;46.70
40516;DHT22;26216;53.724;9.898;2022-08-21T16:00:42;29.30;47.10
40516;DHT22;26216;53.724;9.898;2022-08-21T16:03:12;29.30;45.90
40516;DHT22;26216;53.724;9.898;2022-08-21T16:05:43;29.30;47.20
40516;DHT22;26216;53.724;9.898;2022-08-21T16:08:09;29.30;47.80
40516;DHT22;26216;53.724;9.898;2022-08-21T16:10:36;29.20;47.10
40516;DHT22;26216;53.724;9.898;2022-08-21T16:13:07;29.30;47.90
40516;DHT22;26216;53.724;9.898;2022-08-21T16:15:35;29.30;47.90
40516;DHT22;26216;53.724;9.898;2022-08-21T16:18:01;29.30;48.00
40516;DHT22;26216;53.724;9.898;2022-08-21T16:20:28;29.30;48.00
40516;DHT22;26216;53.724;9.898;2022-08-21T16:22:55;29.20;48.10
40516;DHT22;26216;53.724;9.898;2022-08-21T16:25:22;29.20;48.40
40516;DHT22;26216;53.724;9.898;2022-08-21T16:27:55;29.30;48.80
40516;DHT22;26216;53.724;9.898;2022-08-21T16:30:23;29.20;48.90
40516;DHT22;26216;53.724;9.898;2022-08-21T16:32:50;29.20;48.70
40516;DHT22;26216;53.724;9.898;2022-08-21T16:35:18;29.20;48.90
40516;DHT22;26216;53.724;9.898;2022-08-21T16:37:45;29.20;49.10
40516;DHT22;26216;53.724;9.898;2022-08-21T16:40:11;29.20;49.20
40516;DHT22;26216;53.724;9.898;2022-08-21T16:42:38;29.10;49.10
40516;DHT22;26216;53.724;9.898;2022-08-21T16:45:10;29.00;49.30
40516;DHT22;26216;53.724;9.898;2022-08-21T16:47:37;29.00;49.50
40516;DHT22;26216;53.724;9.898;2022-08-21T16:50:04;29.10;50.00
40516;DHT22;26216;53.724;9.898;2022-08-21T16:52:32;29.00;50.00
40516;DHT22;26216;53.724;9.898;2022-08-21T16:55:05;28.90;49.90
40516;DHT22;26216;53.724;9.898;2022-08-21T16:57:31;28.90;50.30
40516;DHT22;26216;53.724;9.898;2022-08-21T16:59:57;28.80;50.30
40516;DHT22;26216;53.724;9.898;2022-08-21T17:02:38;28.70;50.50
40516;DHT22;26216;53.724;9.898;2022-08-21T17:05:04;28.60;50.80
40516;DHT22;26216;53.724;9.898;2022-08-21T17:07:31;28.50;51.50
40516;DHT22;26216;53.724;9.898;2022-08-21T17:09:58;28.50;51.10
40516;DHT22;26216;53.724;9.898;2022-08-21T17:12:24;28.50;51.30
40516;DHT22;26216;53.724;9.898;2022-08-21T17:14:51;28.50;51.30
40516;DHT22;26216;53.724;9.898;2022-08-21T17:17:17;28.50;51.50
40516;DHT22;26216;53.724;9.898;2022-08-21T17:19:44;28.50;51.40
40516;DHT22;26216;53.724;9.898;2022-08-21T17:22:10;28.50;51.40
40516;DHT22;26216;53.724;9.898;2022-08-21T17:24:36;28.40;51.50
40516;DHT22;26216;53.724;9.898;2022-08-21T17:27:03;28.30;52.10
40516;DHT22;26216;53.724;9.898;2022-08-21T17:29:38;28.20;52.10
40516;DHT22;26216;53.724;9.898;2022-08-21T17:32:09;28.00;53.40
40516;DHT22;26216;53.724;9.898;2022-08-21T17:34:35;27.90;53.10
40516;DHT22;26216;53.724;9.898;2022-08-21T17:37:03;27.90;53.10
40516;DHT22;26216;53.724;9.898;2022-08-21T17:39:28;27.80;53.20
40516;DHT22;26216;53.724;9.898;2022-08-21T17:41:55;27.80;53.60
40516;DHT22;26216;53.724;9.898;2022-08-21T17:44:21;27.70;54.30
40516;DHT22;26216;53.724;9.898;2022-08-21T17:46:47;27.60;54.80
40516;DHT22;26216;53.724;9.898;2022-08-21T17:49:14;27.40;54.80
40516;DHT22;26216;53.724;9.898;2022-08-21T17:51:41;27.30;55.20
40516;DHT22;26216;53.724;9.898;2022-08-21T17:54:07;27.20;55.10
40516;DHT22;26216;53.724;9.898;2022-08-21T17:56:38;27.00;54.90
40516;DHT22;26216;53.724;9.898;2022-08-21T17:59:05;26.80;55.90
40516;DHT22;26216;53.724;9.898;2022-08-21T18:01:37;26.70;56.20
40516;DHT22;26216;53.724;9.898;2022-08-21T18:04:04;26.50;56.30
40516;DHT22;26216;53.724;9.898;2022-08-21T18:06:30;26.40;57.50
40516;DHT22;26216;53.724;9.898;2022-08-21T18:08:56;26.20;58.00
40516;DHT22;26216;53.724;9.898;2022-08-21T18:11:25;26.00;57.60
40516;DHT22;26216;53.724;9.898;2022-08-21T18:13:53;25.90;58.30
40516;DHT22;26216;53.724;9.898;2022-08-21T18:16:21;25.70;58.10
40516;DHT22;26216;53.724;9.898;2022-08-21T18:18:48;25.60;57.80
40516;DHT22;26216;53.724;9.898;2022-08-21T18:21:16;25.40;59.80
40516;DHT22;26216;53.724;9.898;2022-08-21T18:23:42;25.30;59.40
40516;DHT22;26216;53.724;9.898;2022-08-21T18:26:08;25.20;59.60
40516;DHT22;26216;53.724;9.898;2022-08-21T18:28:35;25.10;59.30
40516;DHT22;26216;53.724;9.898;2022-08-21T18:31:03;24.90;59.70
40516;DHT22;26216;53.724;9.898;2022-08-21T18:33:30;24.80;59.80
40516;DHT22;26216;53.724;9.898;2022-08-21T18:35:56;24.80;60.10
40516;DHT22;26216;53.724;9.898;2022-08-21T18:38:22;24.60;61.40
40516;DHT22;26216;53.724;9.898;2022-08-21T18:40:50;24.60;60.50
40516;DHT22;26216;53.724;9.898;2022-08-21T18:43:16;24.50;61.90
40516;DHT22;26216;53.724;9.898;2022-08-21T18:45:43;24.40;62.20
40516;DHT22;26216;53.724;9.898;2022-08-21T18:48:10;24.30;61.20